Time;durP1;ratioP1;P1;durP2;ratioP2;P2;SDS_P1;SDS_P2;PMS_P1;PMS_P2;Temp;Humidity;BMP_temperature;BMP_pressure;BME280_temperature;BME280_humidity;BME280_pressure;Samples;Min_cycle;Max_cycle;Signal;HPM_P1;HPM_P2
2021/11/03 00:00:23;;;;;;;5.10;4.03;;;;;;;;;;5033452;28;20202;-55
2021/11/03 00:02:51;;;;;;;4.47;4.05;;;;;;;;;;5033585;28;20212;-56
2021/11/03 00:05:18;;;;;;;4.55;3.95;;;;;;;;;;5033083;28;20619;-57
2021/11/03 00:07:45;;;;;;;5.57;3.70;;;;;;;;;;5034035;28;20673;-56
2021/11/03 00:10:14;;;;;;;4.85;3.78;;;;;;;;;;5033718;28;20610;-56
2021/11/03 00:12:41;;;;;;;4.80;4.30;;;;;;;;;;5033209;28;20233;-56
2021/11/03 00:15:11;;;;;;;4.53;4.03;;;;;;;;;;5033298;28;20206;-56
2021/11/03 00:17:38;;;;;;;4.80;4.35;;;;;;;;;;5033345;28;20212;-56
2021/11/03 00:20:06;;;;;;;5.30;4.80;;;;;;;;;;5033114;28;20201;-56
2021/11/03 00:22:34;;;;;;;5.28;4.78;;;;;;;;;;5032951;28;20264;-55
2021/11/03 00:25:01;;;;;;;4.75;4.10;;;;;;;;;;5035830;28;20205;-55
2021/11/03 00:27:28;;;;;;;5.43;3.80;;;;;;;;;;5037106;28;20674;-55
2021/11/03 00:29:56;;;;;;;4.85;4.05;;;;;;;;;;5037503;28;20622;-55
2021/11/03 00:32:24;;;;;;;4.43;3.83;;;;;;;;;;5037074;28;20595;-55
2021/11/03 00:34:52;;;;;;;5.78;4.47;;;;;;;;;;5036968;28;20678;-55
2021/11/03 00:37:19;;;;;;;5.40;4.20;;;;;;;;;;5036940;28;20209;-55
2021/11/03 00:39:46;;;;;;;4.90;4.35;;;;;;;;;;5036752;28;20225;-56
2021/11/03 00:42:14;;;;;;;5.25;4.65;;;;;;;;;;5037046;28;20222;-55
2021/11/03 00:44:41;;;;;;;6.18;4.88;;;;;;;;;;5037005;28;20206;-55
2021/11/03 00:47:10;;;;;;;7.75;6.10;;;;;;;;;;5036995;28;20202;-55
2021/11/03 00:49:39;;;;;;;5.10;4.60;;;;;;;;;;5036666;28;20592;-55
2021/11/03 00:52:06;;;;;;;4.72;4.32;;;;;;;;;;5036723;28;20229;-55
2021/11/03 00:54:33;;;;;;;6.15;5.03;;;;;;;;;;5036838;28;20225;-56
2021/11/03 00:57:01;;;;;;;5.25;4.72;;;;;;;;;;5036502;28;20740;-56
2021/11/03 00:59:28;;;;;;;7.05;5.22;;;;;;;;;;5036861;28;20206;-56
2021/11/03 01:01:55;;;;;;;5.20;4.68;;;;;;;;;;5036311;28;20733;-55
2021/11/03 01:04:23;;;;;;;7.00;4.72;;;;;;;;;;5036627;28;20202;-55
2021/11/03 01:06:52;;;;;;;6.60;4.78;;;;;;;;;;5036672;28;20203;-56
2021/11/03 01:09:19;;;;;;;5.78;5.00;;;;;;;;;;5036316;28;20206;-56
2021/11/03 01:11:46;;;;;;;6.18;5.57;;;;;;;;;;5036544;28;20222;-56
2021/11/03 01:14:14;;;;;;;5.20;4.60;;;;;;;;;;5036406;28;20324;-55
2021/11/03 01:16:42;;;;;;;5.40;4.80;;;;;;;;;;5036350;28;20206;-56
2021/11/03 01:19:09;;;;;;;5.75;5.13;;;;;;;;;;5036314;28;20213;-55
2021/11/03 01:21:38;;;;;;;5.93;4.90;;;;;;;;;;5035684;28;20238;-55
2021/11/03 01:24:07;;;;;;;5.57;4.63;;;;;;;;;;5036325;28;20612;-56
2021/11/03 01:26:35;;;;;;;5.97;4.90;;;;;;;;;;5036295;28;20207;-56
2021/11/03 01:29:02;;;;;;;6.50;5.63;;;;;;;;;;5036150;28;20575;-56
2021/11/03 01:31:29;;;;;;;5.82;5.20;;;;;;;;;;5036096;28;20226;-56
2021/11/03 01:33:57;;;;;;;6.60;5.38;;;;;;;;;;5036011;28;20230;-56
2021/11/03 01:36:24;;;;;;;7.78;5.55;;;;;;;;;;5035306;28;20213;-56
2021/11/03 01:38:51;;;;;;;7.25;6.05;;;;;;;;;;5036015;28;20202;-56
2021/11/03 01:41:20;;;;;;;5.45;4.95;;;;;;;;;;5035689;28;20228;-54
2021/11/03 01:43:50;;;;;;;8.48;7.07;;;;;;;;;;5035842;28;20210;-56
2021/11/03 01:46:22;;;;;;;11.57;6.38;;;;;;;;;;5035556;28;20213;-56
2021/11/03 01:48:50;;;;;;;8.05;6.45;;;;;;;;;;5035651;28;20210;-56
2021/11/03 01:51:20;;;;;;;9.60;6.72;;;;;;;;;;5035737;28;20230;-55
2021/11/03 01:53:47;;;;;;;9.40;6.43;;;;;;;;;;5036690;28;20215;-55
2021/11/03 01:56:16;;;;;;;7.28;6.53;;;;;;;;;;5035464;28;20209;-55
2021/11/03 01:58:46;;;;;;;7.93;6.57;;;;;;;;;;5035657;28;20614;-56
2021/11/03 02:01:14;;;;;;;9.05;7.40;;;;;;;;;;5035403;28;20233;-56
2021/11/03 02:03:41;;;;;;;8.60;7.63;;;;;;;;;;5035296;28;20198;-56
2021/11/03 02:06:10;;;;;;;9.07;6.50;;;;;;;;;;5035408;28;20209;-56
2021/11/03 02:08:40;;;;;;;9.40;7.45;;;;;;;;;;5035437;28;20206;-56
2021/11/03 02:11:08;;;;;;;8.00;7.20;;;;;;;;;;5035570;28;20233;-56
2021/11/03 02:13:36;;;;;;;7.97;7.07;;;;;;;;;;5035594;28;20221;-56
2021/11/03 02:16:05;;;;;;;9.80;8.27;;;;;;;;;;5035412;28;20228;-54
2021/11/03 02:18:34;;;;;;;8.93;7.72;;;;;;;;;;5034963;28;20202;-54
2021/11/03 02:21:01;;;;;;;9.38;7.85;;;;;;;;;;5034809;28;20238;-54
2021/11/03 02:23:32;;;;;;;10.05;6.97;;;;;;;;;;5034991;28;20667;-54
2021/11/03 02:26:03;;;;;;;9.55;6.82;;;;;;;;;;5034977;28;20182;-54
2021/11/03 02:28:30;;;;;;;12.07;8.35;;;;;;;;;;5035270;28;20198;-54
2021/11/03 02:30:58;;;;;;;10.75;7.90;;;;;;;;;;5035682;28;20226;-55
2021/11/03 02:33:26;;;;;;;9.43;7.70;;;;;;;;;;5034868;28;20218;-54
2021/11/03 02:35:54;;;;;;;13.73;8.13;;;;;;;;;;5035128;28;20217;-55
2021/11/03 02:38:30;;;;;;;11.13;8.68;;;;;;;;;;5035614;28;20209;-55
2021/11/03 02:40:59;;;;;;;12.98;8.50;;;;;;;;;;5034962;28;20237;-55
2021/11/03 02:43:33;;;;;;;10.30;8.38;;;;;;;;;;5034926;28;20284;-55
2021/11/03 02:46:01;;;;;;;12.38;8.57;;;;;;;;;;5034610;28;20191;-54
2021/11/03 02:48:30;;;;;;;12.60;9.48;;;;;;;;;;5033430;28;20710;-55
2021/11/03 02:50:59;;;;;;;13.60;9.75;;;;;;;;;;5034404;28;20234;-55
2021/11/03 02:53:27;;;;;;;11.55;8.85;;;;;;;;;;5035517;28;20238;-54
2021/11/03 02:55:54;;;;;;;12.50;9.43;;;;;;;;;;5034538;28;20202;-55
2021/11/03 02:58:22;;;;;;;12.52;8.75;;;;;;;;;;5034786;28;20206;-55
2021/11/03 03:00:51;;;;;;;13.85;9.90;;;;;;;;;;5034489;28;20222;-55
2021/11/03 03:03:19;;;;;;;14.00;10.18;;;;;;;;;;5035197;28;20317;-55
2021/11/03 03:05:56;;;;;;;14.27;10.10;;;;;;;;;;5035000;28;20689;-55
2021/11/03 03:08:23;;;;;;;16.42;11.23;;;;;;;;;;5034918;28;20182;-55
2021/11/03 03:10:51;;;;;;;14.57;10.50;;;;;;;;;;5034539;28;20227;-55
2021/11/03 03:13:18;;;;;;;13.27;10.00;;;;;;;;;;5034636;28;20229;-55
2021/11/03 03:15:45;;;;;;;14.43;10.73;;;;;;;;;;5034401;28;20252;-55
2021/11/03 03:18:14;;;;;;;12.82;9.68;;;;;;;;;;5034377;28;20213;-55
2021/11/03 03:20:41;;;;;;;16.35;10.85;;;;;;;;;;5033897;28;20241;-56
2021/11/03 03:23:09;;;;;;;14.45;11.07;;;;;;;;;;5034222;28;20183;-55
2021/11/03 03:25:38;;;;;;;12.80;9.48;;;;;;;;;;5033872;28;20584;-55
2021/11/03 03:28:06;;;;;;;16.40;10.93;;;;;;;;;;5033710;28;20256;-55
2021/11/03 03:30:33;;;;;;;15.95;11.43;;;;;;;;;;5033656;28;20244;-55
2021/11/03 03:33:00;;;;;;;14.68;9.77;;;;;;;;;;5034123;28;20213;-55
2021/11/03 03:35:29;;;;;;;14.32;10.13;;;;;;;;;;5033565;28;20202;-55
2021/11/03 03:37:56;;;;;;;14.70;10.88;;;;;;;;;;5033799;28;20206;-55
2021/11/03 03:40:24;;;;;;;16.02;11.70;;;;;;;;;;5033758;28;20198;-55
2021/11/03 03:42:51;;;;;;;20.45;11.50;;;;;;;;;;5033557;28;20205;-55
2021/11/03 03:45:18;;;;;;;15.63;11.20;;;;;;;;;;5033715;28;20625;-55
2021/11/03 03:47:45;;;;;;;18.38;11.77;;;;;;;;;;5033703;28;20209;-55
2021/11/03 03:50:13;;;;;;;16.30;11.65;;;;;;;;;;5033745;28;20199;-55
2021/11/03 03:52:42;;;;;;;18.02;11.35;;;;;;;;;;5033503;28;20276;-55
2021/11/03 03:55:11;;;;;;;17.92;12.23;;;;;;;;;;5033263;28;20253;-55
2021/11/03 03:57:38;;;;;;;16.70;11.48;;;;;;;;;;5033372;28;20205;-55
2021/11/03 04:00:07;;;;;;;17.55;11.60;;;;;;;;;;5033259;28;20210;-55
2021/11/03 04:02:34;;;;;;;19.83;12.00;;;;;;;;;;5033547;28;20233;-56
2021/11/03 04:05:02;;;;;;;17.88;12.32;;;;;;;;;;5033703;28;20198;-55
2021/11/03 04:08:49;;;;;;;18.35;11.82;;;;;;;;;;5091596;27;20553;-55
2021/11/03 04:11:16;;;;;;;21.83;12.93;;;;;;;;;;5090590;28;20223;-55
2021/11/03 04:13:43;;;;;;;20.83;13.07;;;;;;;;;;5090674;28;20203;-55
2021/11/03 04:16:11;;;;;;;18.60;13.05;;;;;;;;;;5090616;28;20207;-55
2021/11/03 04:18:38;;;;;;;19.25;13.32;;;;;;;;;;5090531;28;20718;-55
2021/11/03 04:21:06;;;;;;;17.92;12.75;;;;;;;;;;5100112;22;20229;-59
2021/11/03 04:23:33;;;;;;;18.45;12.43;;;;;;;;;;5058686;28;20209;-59
2021/11/03 04:26:02;;;;;;;23.15;13.80;;;;;;;;;;5057581;28;20202;-59
2021/11/03 04:28:29;;;;;;;18.77;13.90;;;;;;;;;;5056961;28;20228;-59
2021/11/03 04:30:56;;;;;;;23.15;13.40;;;;;;;;;;5051719;28;20236;-59
2021/11/03 04:33:24;;;;;;;19.95;14.27;;;;;;;;;;5050993;28;20209;-59
2021/11/03 04:35:51;;;;;;;20.80;13.05;;;;;;;;;;5050960;28;20228;-59
2021/11/03 04:38:19;;;;;;;21.95;14.05;;;;;;;;;;5051049;28;20201;-59
2021/11/03 04:40:46;;;;;;;20.00;13.38;;;;;;;;;;5052605;28;20257;-59
2021/11/03 04:43:15;;;;;;;18.00;13.20;;;;;;;;;;5052619;28;20216;-59
2021/11/03 04:45:42;;;;;;;23.52;14.77;;;;;;;;;;5059275;28;20198;-59
2021/11/03 04:48:10;;;;;;;23.65;15.10;;;;;;;;;;5064917;28;20225;-59
2021/11/03 04:50:37;;;;;;;21.35;15.20;;;;;;;;;;5065720;28;20226;-59
2021/11/03 04:53:05;;;;;;;21.25;14.48;;;;;;;;;;5065112;28;20228;-59
2021/11/03 04:55:32;;;;;;;22.65;14.07;;;;;;;;;;5064196;28;20198;-59
2021/11/03 04:58:00;;;;;;;22.17;14.48;;;;;;;;;;5065680;28;20197;-59
2021/11/03 05:00:32;;;;;;;20.75;14.25;;;;;;;;;;5055013;28;20228;-59
2021/11/03 05:03:00;;;;;;;25.15;14.30;;;;;;;;;;5051237;28;20190;-57
2021/11/03 05:05:27;;;;;;;26.35;14.80;;;;;;;;;;5050294;28;20201;-60
2021/11/03 05:07:55;;;;;;;30.70;15.80;;;;;;;;;;5050312;28;20224;-59
2021/11/03 05:10:22;;;;;;;25.45;14.80;;;;;;;;;;5058831;28;20221;-60
2021/11/03 05:12:50;;;;;;;24.60;15.48;;;;;;;;;;5058085;28;20228;-60
2021/11/03 05:15:17;;;;;;;21.63;14.63;;;;;;;;;;5050634;28;20209;-59
2021/11/03 05:17:46;;;;;;;24.85;16.30;;;;;;;;;;5051809;28;20205;-59
2021/11/03 05:20:15;;;;;;;23.42;16.40;;;;;;;;;;5043311;28;20202;-59
2021/11/03 05:22:42;;;;;;;30.02;17.58;;;;;;;;;;5040185;28;20187;-59
2021/11/03 05:25:10;;;;;;;22.75;15.40;;;;;;;;;;5036496;28;20736;-59
2021/11/03 05:27:37;;;;;;;26.42;17.05;;;;;;;;;;5036604;28;20225;-59
2021/11/03 05:30:05;;;;;;;24.13;15.57;;;;;;;;;;5035775;28;20692;-59
2021/11/03 05:32:32;;;;;;;28.27;16.95;;;;;;;;;;5036250;28;20228;-59
2021/11/03 05:35:01;;;;;;;25.63;16.02;;;;;;;;;;5036096;28;20210;-58
2021/11/03 05:37:28;;;;;;;25.52;14.90;;;;;;;;;;5035869;28;20201;-60
2021/11/03 05:39:55;;;;;;;29.65;16.98;;;;;;;;;;5035711;28;20234;-58
2021/11/03 05:42:23;;;;;;;26.42;16.83;;;;;;;;;;5035720;28;20565;-59
2021/11/03 05:44:50;;;;;;;26.05;15.65;;;;;;;;;;5035861;28;20229;-59
2021/11/03 05:47:21;;;;;;;25.00;15.13;;;;;;;;;;5035514;28;20218;-60
2021/11/03 05:49:48;;;;;;;23.48;15.98;;;;;;;;;;5035490;28;20582;-59
2021/11/03 05:52:17;;;;;;;26.35;17.20;;;;;;;;;;5035117;28;20233;-60
2021/11/03 05:54:45;;;;;;;31.23;17.15;;;;;;;;;;5035121;28;20202;-59
2021/11/03 05:57:18;;;;;;;26.00;15.68;;;;;;;;;;5035532;28;20206;-59
2021/11/03 05:59:45;;;;;;;25.80;16.30;;;;;;;;;;5035488;28;20632;-59
2021/11/03 06:02:12;;;;;;;27.63;17.38;;;;;;;;;;5035751;28;20226;-58
2021/11/03 06:04:40;;;;;;;25.92;16.13;;;;;;;;;;5036044;28;20206;-59
2021/11/03 06:07:07;;;;;;;25.33;14.95;;;;;;;;;;5035569;28;20210;-59
2021/11/03 06:09:36;;;;;;;29.85;18.13;;;;;;;;;;5035575;28;20206;-59
2021/11/03 06:12:03;;;;;;;29.25;17.35;;;;;;;;;;5035602;28;20296;-60
2021/11/03 06:14:30;;;;;;;29.25;18.02;;;;;;;;;;5035258;28;20206;-60
2021/11/03 06:16:57;;;;;;;29.08;18.50;;;;;;;;;;5036684;28;20623;-59
2021/11/03 06:19:25;;;;;;;30.15;18.40;;;;;;;;;;5042843;28;20194;-58
2021/11/03 06:21:53;;;;;;;32.20;20.13;;;;;;;;;;5039989;28;20257;-59
2021/11/03 06:24:23;;;;;;;28.88;17.17;;;;;;;;;;5034831;28;20654;-59
2021/11/03 06:26:52;;;;;;;31.88;17.55;;;;;;;;;;5034955;28;20194;-60
2021/11/03 06:29:19;;;;;;;30.00;18.42;;;;;;;;;;5035242;28;20226;-59
2021/11/03 06:31:46;;;;;;;26.35;16.75;;;;;;;;;;5033952;28;20233;-60
2021/11/03 06:34:14;;;;;;;31.90;18.77;;;;;;;;;;5035094;28;20206;-59
2021/11/03 06:36:41;;;;;;;34.20;19.02;;;;;;;;;;5034748;28;20202;-59
2021/11/03 06:39:09;;;;;;;32.78;17.88;;;;;;;;;;5034507;28;20671;-60
2021/11/03 06:41:38;;;;;;;29.60;18.88;;;;;;;;;;5034916;28;20729;-60
2021/11/03 06:44:07;;;;;;;33.67;18.42;;;;;;;;;;5035827;28;20724;-58
2021/11/03 06:46:35;;;;;;;27.80;18.35;;;;;;;;;;5035373;28;20297;-61
2021/11/03 06:49:02;;;;;;;29.10;19.23;;;;;;;;;;5035660;28;20221;-59
2021/11/03 06:51:30;;;;;;;31.08;18.60;;;;;;;;;;5035607;28;20276;-59
2021/11/03 06:53:57;;;;;;;32.15;18.27;;;;;;;;;;5037382;28;20685;-60
2021/11/03 06:56:25;;;;;;;32.63;19.30;;;;;;;;;;5040023;28;20221;-58
2021/11/03 06:58:52;;;;;;;29.25;18.45;;;;;;;;;;5039889;28;20194;-59
2021/11/03 07:01:21;;;;;;;29.00;17.42;;;;;;;;;;5041088;28;20648;-60
2021/11/03 07:03:50;;;;;;;31.05;18.02;;;;;;;;;;5043160;28;20203;-60
2021/11/03 07:06:18;;;;;;;27.23;17.92;;;;;;;;;;5044615;28;20202;-59
2021/11/03 07:08:47;;;;;;;33.10;18.55;;;;;;;;;;5041114;28;20721;-59
2021/11/03 07:11:14;;;;;;;32.80;19.23;;;;;;;;;;5038417;28;20679;-59
2021/11/03 07:13:41;;;;;;;35.17;19.20;;;;;;;;;;5040725;28;20210;-59
2021/11/03 07:16:09;;;;;;;29.55;19.02;;;;;;;;;;5041017;28;20212;-59
2021/11/03 07:18:37;;;;;;;29.42;18.50;;;;;;;;;;5038396;28;20195;-61
2021/11/03 07:21:05;;;;;;;32.95;19.13;;;;;;;;;;5036232;28;20238;-59
2021/11/03 07:23:32;;;;;;;30.95;18.98;;;;;;;;;;5040911;28;20697;-59
2021/11/03 07:25:59;;;;;;;26.40;17.00;;;;;;;;;;5043898;28;20206;-59
2021/11/03 07:28:27;;;;;;;26.05;16.85;;;;;;;;;;5042549;28;20316;-57
2021/11/03 07:30:54;;;;;;;24.38;17.05;;;;;;;;;;5043758;28;20230;-59
2021/11/03 07:33:22;;;;;;;28.13;17.33;;;;;;;;;;5041001;28;20206;-59
2021/11/03 07:35:51;;;;;;;23.10;15.95;;;;;;;;;;5042007;28;20209;-60
2021/11/03 07:38:19;;;;;;;24.42;15.68;;;;;;;;;;5040998;28;20199;-58
2021/11/03 07:40:48;;;;;;;19.38;15.13;;;;;;;;;;5045674;28;20218;-59
2021/11/03 07:43:17;;;;;;;26.50;15.23;;;;;;;;;;5042959;28;20206;-60
2021/11/03 07:45:45;;;;;;;19.27;14.43;;;;;;;;;;5041497;28;20202;-59
2021/11/03 07:48:12;;;;;;;20.38;15.18;;;;;;;;;;5042255;28;20296;-58
2021/11/03 07:50:41;;;;;;;21.15;14.32;;;;;;;;;;5044105;28;20584;-60
2021/11/03 07:53:10;;;;;;;21.38;14.43;;;;;;;;;;5043699;28;20233;-59
2021/11/03 07:55:38;;;;;;;19.13;14.25;;;;;;;;;;5044063;28;20571;-60
2021/11/03 07:58:05;;;;;;;19.60;13.30;;;;;;;;;;5040330;28;20210;-59
2021/11/03 08:00:35;;;;;;;17.55;12.95;;;;;;;;;;5042253;28;20218;-59
2021/11/03 08:03:02;;;;;;;21.35;14.10;;;;;;;;;;5040414;28;20210;-60
2021/11/03 08:05:30;;;;;;;20.75;15.65;;;;;;;;;;5034120;28;20206;-60
2021/11/03 08:07:58;;;;;;;18.13;14.63;;;;;;;;;;5033828;28;20214;-60
2021/11/03 08:10:27;;;;;;;21.10;13.88;;;;;;;;;;5033707;28;20233;-59
2021/11/03 08:12:56;;;;;;;15.57;12.48;;;;;;;;;;5034043;28;20202;-60
2021/11/03 08:15:23;;;;;;;18.30;14.30;;;;;;;;;;5033725;28;20264;-60
2021/11/03 08:17:51;;;;;;;17.75;14.32;;;;;;;;;;5033829;28;20206;-60
2021/11/03 08:20:23;;;;;;;22.40;13.93;;;;;;;;;;5032961;28;20210;-59
2021/11/03 08:22:51;;;;;;;16.73;13.35;;;;;;;;;;5033581;28;20241;-60
2021/11/03 08:25:18;;;;;;;14.93;12.95;;;;;;;;;;5033101;28;20613;-59
2021/11/03 08:27:47;;;;;;;16.88;12.60;;;;;;;;;;5033091;28;20213;-60
2021/11/03 08:30:15;;;;;;;15.70;12.75;;;;;;;;;;5033492;28;20225;-60
2021/11/03 08:32:45;;;;;;;14.50;12.77;;;;;;;;;;5034028;28;20213;-60
2021/11/03 08:35:13;;;;;;;16.50;11.93;;;;;;;;;;5033617;28;20293;-60
2021/11/03 08:37:41;;;;;;;14.80;12.27;;;;;;;;;;5033175;28;20209;-60
2021/11/03 08:40:10;;;;;;;15.75;12.48;;;;;;;;;;5033927;28;20217;-59
2021/11/03 08:42:38;;;;;;;15.68;12.45;;;;;;;;;;5033361;28;20206;-60
2021/11/03 08:45:07;;;;;;;16.60;12.57;;;;;;;;;;5032858;28;20202;-60
2021/11/03 08:47:35;;;;;;;13.85;11.35;;;;;;;;;;5033209;28;20233;-60
2021/11/03 08:50:02;;;;;;;16.90;13.25;;;;;;;;;;5033272;28;20227;-60
2021/11/03 08:52:30;;;;;;;14.55;12.55;;;;;;;;;;5033519;28;20205;-60
2021/11/03 08:54:57;;;;;;;17.92;14.15;;;5.40;99.90;;;;;;5035504;28;20202;-59
2021/11/03 08:57:25;;;;;;;18.58;13.95;;;8.30;99.90;;;;;;5036871;28;20280;-60
2021/11/03 08:59:52;;;;;;;18.80;15.75;;;8.40;99.90;;;;;;5036917;28;20198;-59
2021/11/03 09:02:22;;;;;;;15.65;13.38;;;8.40;99.90;;;;;;5037431;28;20222;-60
2021/11/03 09:04:49;;;;;;;18.33;13.43;;;8.40;99.90;;;;;;5037128;28;20210;-60
2021/11/03 09:07:16;;;;;;;18.27;14.32;;;8.50;99.90;;;;;;5036962;28;20225;-60
2021/11/03 09:09:45;;;;;;;15.50;13.70;;;8.50;99.90;;;;;;5037712;28;20229;-60
2021/11/03 09:12:12;;;;;;;19.27;13.98;;;8.60;99.90;;;;;;5038586;28;20367;-59
2021/11/03 09:14:41;;;;;;;17.35;13.63;;;8.60;99.90;;;;;;5037675;28;20210;-60
2021/11/03 09:17:09;;;;;;;17.30;13.27;;;8.60;99.90;;;;;;5036814;28;20202;-59
2021/11/03 09:19:38;;;;;;;17.55;13.98;;;8.60;99.90;;;;;;5036922;28;20202;-60
2021/11/03 09:22:06;;;;;;;16.48;13.02;;;8.70;99.90;;;;;;5036042;28;20705;-60
2021/11/03 09:24:34;;;;;;;16.85;13.57;;;8.80;99.90;;;;;;5036564;28;20206;-59
2021/11/03 09:27:04;;;;;;;16.30;13.25;;;8.80;99.90;;;;;;5036355;28;20289;-59
2021/11/03 09:29:31;;;;;;;15.10;12.10;;;8.90;99.90;;;;;;5036750;28;20222;-60
2021/11/03 09:31:59;;;;;;;15.32;12.75;;;8.90;99.90;;;;;;5036953;28;20230;-59
2021/11/03 09:34:26;;;;;;;18.67;13.45;;;9.00;99.90;;;;;;5036657;28;20199;-60
2021/11/03 09:36:55;;;;;;;15.65;12.60;;;9.00;99.90;;;;;;5036470;28;20202;-59
2021/11/03 09:39:22;;;;;;;14.57;11.90;;;9.10;99.90;;;;;;5037256;28;20245;-60
2021/11/03 09:41:51;;;;;;;14.50;12.30;;;9.20;99.90;;;;;;5036578;28;20518;-59
2021/11/03 09:44:23;;;;;;;15.95;12.82;;;9.30;99.90;;;;;;5036367;28;20203;-60
2021/11/03 09:46:53;;;;;;;16.45;13.15;;;9.40;99.90;;;;;;5035708;28;20191;-60
2021/11/03 09:49:26;;;;;;;15.43;12.95;;;9.50;99.90;;;;;;5035657;28;20682;-59
2021/11/03 09:51:58;;;;;;;14.88;12.43;;;9.50;99.90;;;;;;5035464;28;20241;-61
2021/11/03 09:54:28;;;;;;;15.25;12.43;;;9.60;99.90;;;;;;5036065;28;20186;-60
2021/11/03 09:57:00;;;;;;;13.88;12.45;;;9.70;99.90;;;;;;5038615;28;20206;-59
2021/11/03 09:59:33;;;;;;;14.23;11.63;;;9.70;99.90;;;;;;5037777;28;20190;-61
2021/11/03 10:02:18;;;;;;;14.27;12.35;;;9.80;99.90;;;;;;5035668;28;20250;-59
2021/11/03 10:05:05;;;;;;;13.90;12.38;;;9.90;99.90;;;;;;5035208;28;20692;-61
2021/11/03 10:07:45;;;;;;;14.83;12.03;;;10.00;99.90;;;;;;5035380;28;20277;-59
2021/11/03 10:10:20;;;;;;;13.60;12.20;;;10.10;99.90;;;;;;5035364;28;20468;-59
2021/11/03 10:12:48;;;;;;;12.60;11.03;;;10.20;99.90;;;;;;5035260;28;20431;-60
2021/11/03 10:15:18;;;;;;;13.80;11.50;;;10.20;99.90;;;;;;5034893;28;20960;-59
2021/11/03 10:17:45;;;;;;;13.40;12.00;;;10.20;99.90;;;;;;5035594;28;20449;-60
2021/11/03 10:20:20;;;;;;;13.67;12.17;;;10.30;99.90;;;;;;5034934;28;20448;-60
2021/11/03 10:22:49;;;;;;;16.40;12.73;;;10.30;99.90;;;;;;5059028;22;20496;-56
2021/11/03 10:25:23;;;;;;;14.70;12.07;;;10.50;99.90;;;;;;5034701;28;20801;-56
2021/11/03 10:27:53;;;;;;;12.40;11.20;;;10.60;99.90;;;;;;5034424;28;20436;-56
2021/11/03 10:30:32;;;;;;;14.67;11.87;;;10.70;99.90;;;;;;5034528;28;20583;-56
2021/11/03 10:33:09;;;;;;;13.13;11.30;;;10.80;99.90;;;;;;5034585;28;20484;-56
2021/11/03 10:35:40;;;;;;;14.17;12.53;;;10.90;99.90;;;;;;5034666;28;20499;-56
2021/11/03 10:38:14;;;;;;;13.03;11.67;;;11.00;99.90;;;;;;5034642;28;20432;-55
2021/11/03 10:40:48;;;;;;;13.20;10.47;;;11.10;99.90;;;;;;5033912;28;20429;-55
2021/11/03 10:43:29;;;;;;;13.03;11.30;;;11.10;99.90;;;;;;5034259;28;20471;-55
2021/11/03 10:46:04;;;;;;;14.80;12.73;;;11.00;99.90;;;;;;5034126;28;20429;-56
2021/11/03 10:48:31;;;;;;;13.40;11.70;;;10.90;99.90;;;;;;5034314;28;20429;-56
2021/11/03 10:51:04;;;;;;;14.63;12.50;;;10.90;99.90;;;;;;5034662;28;20445;-55
2021/11/03 10:53:49;;;;;;;14.47;12.97;;;10.90;99.80;;;;;;5034527;28;20468;-57
2021/11/03 10:56:21;;;;;;;13.60;12.27;;;10.90;99.70;;;;;;5035210;28;20785;-56
2021/11/03 10:58:59;;;;;;;15.20;13.70;;;11.00;99.60;;;;;;5034387;28;20852;-56
2021/11/03 11:01:29;;;;;;;14.40;12.87;;;11.00;99.30;;;;;;5034662;28;20439;-56
2021/11/03 11:04:03;;;;;;;14.30;12.43;;;11.00;99.50;;;;;;5034207;28;20524;-57
2021/11/03 11:06:35;;;;;;;13.00;11.60;;;11.00;98.90;;;;;;5034991;28;20429;-57
2021/11/03 11:09:22;;;;;;;12.90;11.50;;;11.00;98.70;;;;;;5034290;28;20559;-56
2021/11/03 11:11:54;;;;;;;14.87;11.93;;;10.90;98.50;;;;;;5033489;28;20590;-55
2021/11/03 11:14:24;;;;;;;13.40;11.97;;;10.90;98.50;;;;;;5034175;28;20787;-56
2021/11/03 11:16:58;;;;;;;12.73;11.10;;;11.00;98.40;;;;;;5033044;28;20454;-56
2021/11/03 11:19:37;;;;;;;14.30;12.80;;;11.00;98.20;;;;;;5033629;28;20939;-56
2021/11/03 11:22:14;;;;;;;12.57;11.27;;;11.10;97.90;;;;;;5033559;28;20984;-55
2021/11/03 11:24:50;;;;;;;12.60;11.13;;;11.10;97.70;;;;;;5033575;28;20440;-56
2021/11/03 11:27:23;;;;;;;12.70;11.40;;;11.10;97.60;;;;;;5034309;28;20504;-57
2021/11/03 11:30:02;;;;;;;15.87;14.17;;;11.20;97.50;;;;;;5033443;28;20472;-56
2021/11/03 11:32:40;;;;;;;20.40;17.47;;;11.20;97.30;;;;;;5033165;28;20469;-56
2021/11/03 11:35:15;;;;;;;20.37;16.43;;;11.20;97.30;;;;;;5033784;28;20429;-56
2021/11/03 11:38:00;;;;;;;13.43;12.00;;;11.30;97.20;;;;;;5034376;28;20452;-56
2021/11/03 11:40:44;;;;;;;12.13;10.83;;;11.40;97.10;;;;;;5033963;28;20425;-56
2021/11/03 11:43:21;;;;;;;15.30;12.30;;;11.40;96.90;;;;;;5033852;28;20472;-56
2021/11/03 11:45:49;;;;;;;12.20;11.00;;;11.40;96.70;;;;;;5034304;28;20512;-56
2021/11/03 11:48:23;;;;;;;11.70;10.57;;;11.40;96.60;;;;;;5033603;28;20460;-56
2021/11/03 11:50:54;;;;;;;13.90;11.70;;;11.40;96.60;;;;;;5034002;28;20471;-55
2021/11/03 11:53:24;;;;;;;13.20;11.17;;;11.40;96.70;;;;;;5033716;28;20468;-55
2021/11/03 11:56:18;;;;;;;12.50;10.70;;;11.40;96.60;;;;;;5033345;28;20433;-56
2021/11/03 11:58:47;;;;;;;12.93;10.80;;;11.30;96.50;;;;;;5032595;28;20520;-55
2021/11/03 12:01:35;;;;;;;13.43;10.40;;;11.40;96.70;;;;;;5032952;28;20463;-56
2021/11/03 12:04:45;;;;;;;14.90;11.57;;;11.30;96.50;;;;;;5033008;28;20430;-55
2021/11/03 12:07:29;;;;;;;12.43;10.27;;;11.30;96.50;;;;;;5033422;28;20917;-56
2021/11/03 12:10:30;;;;;;;11.50;10.30;;;11.20;96.50;;;;;;5031949;28;20491;-55
2021/11/03 12:13:29;;;;;;;14.17;11.77;;;11.20;96.70;;;;;;5034582;28;20459;-56
2021/11/03 12:16:17;;;;;;;13.90;12.03;;;11.40;96.70;;;;;;5033501;28;20494;-56
2021/11/03 12:18:48;;;;;;;12.00;10.70;;;11.40;96.40;;;;;;5033578;28;20439;-56
2021/11/03 12:21:33;;;;;;;13.00;11.70;;;11.50;96.20;;;;;;5033434;28;20428;-56
2021/11/03 12:24:29;;;;;;;11.53;10.07;;;11.40;96.00;;;;;;5033135;28;20921;-56
2021/11/03 12:27:36;;;;;;;13.23;10.10;;;11.40;96.10;;;;;;5034190;28;20949;-56
2021/11/03 12:30:31;;;;;;;11.97;10.00;;;11.50;96.00;;;;;;5036562;28;20579;-55
2021/11/03 12:33:01;;;;;;;14.80;10.27;;;11.50;95.80;;;;;;5037575;28;20477;-56
2021/11/03 12:36:15;;;;;;;13.17;10.30;;;11.40;95.80;;;;;;5038054;28;20452;-58
2021/11/03 12:38:56;;;;;;;12.67;10.07;;;11.40;95.80;;;;;;5038279;28;20449;-56
2021/11/03 12:41:39;;;;;;;11.33;10.13;;;11.30;95.90;;;;;;5036353;28;20767;-56
2021/11/03 12:44:13;;;;;;;10.70;9.43;;;11.40;95.80;;;;;;5036675;28;20486;-56
2021/11/03 12:46:41;;;;;;;16.37;12.07;;;11.30;95.80;;;;;;5036163;28;20454;-55
2021/11/03 12:49:14;;;;;;;15.00;12.17;;;11.30;95.80;;;;;;5036582;28;20453;-55
2021/11/03 12:51:50;;;;;;;27.60;16.93;;;11.30;95.80;;;;;;5036521;28;20468;-56
2021/11/03 12:54:21;;;;;;;27.60;16.90;;;11.30;95.80;;;;;;5036239;28;20433;-56
2021/11/03 12:57:01;;;;;;;23.70;15.03;;;11.30;95.70;;;;;;5036255;28;20437;-56
2021/11/03 12:59:31;;;;;;;25.97;17.00;;;11.20;95.70;;;;;;5036502;28;20421;-55
2021/11/03 13:02:01;;;;;;;21.43;17.13;;;11.10;95.90;;;;;;5036337;28;20469;-55
2021/11/03 13:04:31;;;;;;;25.90;17.97;;;11.00;96.00;;;;;;5036120;28;20433;-56
2021/11/03 13:06:59;;;;;;;25.03;18.23;;;;;;;;;;5036462;28;20471;-55
2021/11/03 13:09:28;;;;;;;31.60;18.73;;;;;;;;;;5035813;28;20960;-55
2021/11/03 13:11:55;;;;;;;21.90;16.73;;;;;;;;;;5036132;28;20469;-55
2021/11/03 13:14:24;;;;;;;21.27;17.80;;;;;;;;;;5035736;28;20441;-56
2021/11/03 13:16:53;;;;;;;21.27;16.30;;;;;;;;;;5036063;28;20460;-56
2021/11/03 13:19:23;;;;;;;24.90;17.10;;;;;;;;;;5035643;28;20469;-55
2021/11/03 13:21:50;;;;;;;20.83;16.77;;;;;;;;;;5035854;28;20485;-55
2021/11/03 13:24:20;;;;;;;15.32;13.05;;;;;;;;;;5035866;28;20805;-56
2021/11/03 13:26:48;;;;;;;17.47;14.00;;;;;;;;;;5035511;28;20209;-56
2021/11/03 13:29:21;;;;;;;15.38;11.80;;;;;;;;;;5036234;28;20464;-55
2021/11/03 13:32:03;;;;;;;14.10;11.05;;;;;;;;;;5035217;28;20230;-56
2021/11/03 13:34:43;;;;;;;17.05;12.23;;;;;;;;;;5035458;28;20186;-55
2021/11/03 13:37:23;;;;;;;18.23;11.20;;;;;;;;;;5035634;28;20561;-55
2021/11/03 13:39:59;;;;;;;14.90;10.63;;;;;;;;;;5034891;28;20189;-55
2021/11/03 13:42:31;;;;;;;17.53;12.50;;;;;;;;;;5034985;28;20628;-56
2021/11/03 13:44:59;;;;;;;24.50;12.63;;;;;;;;;;5035364;28;20528;-55
2021/11/03 13:47:29;;;;;;;29.60;13.98;;;;;;;;;;5035771;28;20543;-55
2021/11/03 13:50:18;;;;;;;21.48;13.15;;;;;;;;;;5035399;28;20215;-55
2021/11/03 13:52:52;;;;;;;18.63;13.43;;;;;;;;;;5035460;28;20226;-56
2021/11/03 13:55:23;;;;;;;23.63;12.48;;;;;;;;;;5035192;28;20937;-56
2021/11/03 13:57:51;;;;;;;18.15;11.98;;;;;;;;;;5035106;28;20218;-56
2021/11/03 14:00:19;;;;;;;14.32;11.77;;;;;;;;;;5034664;28;20685;-55
2021/11/03 14:02:48;;;;;;;14.25;11.70;;;;;;;;;;5035208;28;20231;-55
2021/11/03 14:05:34;;;;;;;16.73;11.02;;;;;;;;;;5035082;28;20675;-56
2021/11/03 14:08:03;;;;;;;15.05;11.38;;;;;;;;;;5034971;28;20186;-56